OMDBOEGN

Guest
Details From OMDB - DUBAI INTL
To OEGN - KING ABDULLAH BIN ABDULAZIZ
Flight Number -
Tags decoded
Created
Modified
Stats Distance 873 nm / 1,618 km
Max Altitude 0 ft / 0 m
Waypoints 2
Social Downloads 0
Likes 0
Share VATSIM

Download

Looking for another format? Having issues loading an existing format? Contact us
Advertisement - Login to hide

Notes

Requested: OMDB OEGN

Route

OMDB OEGN

ID Type Via Altitude Latitude Longitude Leg Dist Tot Dist Heading (true) Name
O OMDB APT - 0 ft / 0 m 25.25491˚ 55.36426˚ - 0 nm - DUBAI INTL
O OEGN APT - 0 ft / 0 m 16.90108˚ 42.58578˚ 873 nm 873 nm 237° / 233° KING ABDULLAH BIN ABDULAZIZ

Altitude Profile

Advertisement - Login to hide

Weather


0- 5 10 15 20 25 30 35+ Temperature / ° C

Clouds and Precipitation
Forecast for 2017-12-18 12:00 UTC. Updated 4 minutes ago

Ground ~20,000 ft ~40,000 ft Winds

OMDB

Details ICAO OMDB (DXB)
Name DUBAI INTL
Region United Arab Emirates
Timezone Asia/Dubai (UTC+4.0)
Stats Elevation 62 ft / 19 m (AMSL)
Location 25.254912° 55.364260°
Runways 2
Magnetic Variation 2.047° E

METAR

OMDB 181100Z 32011KT 300V010 9999 SCT035 23/13 Q1020 NOSIG

Decode

TAF

TAF OMDB 180456Z 1806/1912 08007KT 8000 FEW040 PROB30 TEMPO 1806/1815 VRB20G35KT 1500 TSRA BLDU SCT040CB BECMG 1808/1810 33013KT BECMG 1815/1817 06005KT BECMG 1907/1909 34010KT

Decode

Departure Runways

ID Width Length Bearing (true) Bearing (mag) Surface Threshold Offset Overrun Length
12L 197 ft / 60 m 13,124 ft / 4,000 m 121.49° 119.44° Asphalt 1,312 ft / 400 m 395 ft / 120 m
12R 151 ft / 46 m 13,139 ft / 4,005 m 121.48° 119.43° Asphalt 394 ft / 120 m 197 ft / 60 m
30L 151 ft / 46 m 13,139 ft / 4,005 m 301.50° 299.45° Asphalt 2,953 ft / 900 m 197 ft / 60 m
30R 197 ft / 60 m 13,124 ft / 4,000 m 301.51° 299.46° Asphalt 0 ft / 0 m 395 ft / 120 m

OEGN

Details ICAO OEGN (GIZ)
Name KING ABDULLAH BIN ABDULAZIZ
Region Saudi Arabia
Timezone Asia/Riyadh (UTC+3.0)
Stats Elevation 20 ft / 6 m (AMSL)
Location 16.901080° 42.585782°
Runways 1
Magnetic Variation 2.638° E

METAR

OEGN 181100Z 18006KT 9999 FEW030 30/20 Q1016 NOSIG

Decode

TAF

Not found

Destination Runways

ID Width Length Bearing (true) Bearing (mag) Surface Threshold Offset Overrun Length
15 148 ft / 45 m 10,046 ft / 3,062 m 150.15° 147.51° Asphalt 0 ft / 0 m 1,000 ft / 305 m
33 148 ft / 45 m 10,046 ft / 3,062 m 330.15° 327.51° Asphalt 0 ft / 0 m 1,000 ft / 305 m

Approach Navaids

Runway Type Ident Frequency Range Bearing (true) Bearing (mag) Slope Elevation
33 Localiser IGZN 109.90 MHz 18 nm / 33 km 330.16° 327.52° - 20 ft / 6 m (AMSL)
33 Glidescope IGZN 109.90 MHz 10 nm / 19 km 330.15° 327.51° 3.00° 20 ft / 6 m (AMSL)
33 DME IGZN 109.90 MHz 18 nm / 33 km - - - 20 ft / 6 m (AMSL)